Time;durP1;ratioP1;P1;durP2;ratioP2;P2;SDS_P1;SDS_P2;PMS_P1;PMS_P2;Temp;Humidity;BMP_temperature;BMP_pressure;BME280_temperature;BME280_humidity;BME280_pressure;Samples;Min_cycle;Max_cycle;Signal;HPM_P1;HPM_P2
2022/07/07 00:02:16;;;;;;;8.13;2.05;;;19.00;99.90;;;;;;5073184;28;20244;-82
2022/07/07 00:04:43;;;;;;;6.60;1.73;;;19.00;99.90;;;;;;5069999;28;20213;-89
2022/07/07 00:07:10;;;;;;;6.47;1.90;;;18.90;99.90;;;;;;5054013;28;20210;-88
2022/07/07 00:09:37;;;;;;;5.97;2.13;;;18.80;99.90;;;;;;5052440;28;20280;-88
2022/07/07 00:12:05;;;;;;;5.80;1.90;;;18.80;99.90;;;;;;5053824;28;20313;-89
2022/07/07 00:14:35;;;;;;;6.50;1.77;;;18.70;99.90;;;;;;5061900;28;20244;-93
2022/07/07 00:17:02;;;;;;;6.47;1.85;;;18.60;99.90;;;;;;5073777;28;20201;-90
2022/07/07 00:19:29;;;;;;;5.15;1.73;;;18.60;99.90;;;;;;5056898;28;20567;-94
2022/07/07 00:21:58;;;;;;;2.97;1.63;;;18.50;99.90;;;;;;5053911;28;20202;-90
2022/07/07 00:24:25;;;;;;;3.75;1.50;;;18.40;99.90;;;;;;5053233;28;20190;-89
2022/07/07 00:26:52;;;;;;;6.03;2.38;;;18.20;99.90;;;;;;5054502;28;20218;-91
2022/07/07 00:29:19;;;;;;;7.25;2.25;;;18.10;99.90;;;;;;5053632;28;20200;-86
2022/07/07 00:31:48;;;;;;;5.55;2.80;;;18.00;99.90;;;;;;5057150;23;20949;-90
2022/07/07 00:34:15;;;;;;;5.80;2.97;;;18.00;99.90;;;;;;5053653;28;20546;-88
2022/07/07 00:36:43;;;;;;;7.07;2.42;;;17.90;99.90;;;;;;5053485;28;20209;-89
2022/07/07 00:39:10;;;;;;;5.45;2.25;;;17.90;99.90;;;;;;5053950;28;20210;-88
2022/07/07 00:41:37;;;;;;;4.30;2.40;;;17.90;99.90;;;;;;5054677;28;20198;-88
2022/07/07 00:44:04;;;;;;;2.92;1.85;;;17.90;99.90;;;;;;5049110;28;20622;-89
2022/07/07 00:46:42;;;;;;;5.97;2.13;;;17.90;99.90;;;;;;5042140;28;20303;-92
2022/07/07 00:49:11;;;;;;;6.55;2.00;;;17.90;99.90;;;;;;5031352;28;20517;-87
2022/07/07 00:51:39;;;;;;;5.13;2.47;;;18.00;99.90;;;;;;5033434;28;20227;-90
2022/07/07 00:54:06;;;;;;;3.55;2.50;;;18.00;99.90;;;;;;5033604;28;20197;-90
2022/07/07 00:56:33;;;;;;;4.07;2.30;;;18.10;99.90;;;;;;5043337;28;20210;-90
2022/07/07 00:59:06;;;;;;;3.63;2.67;;;18.10;99.90;;;;;;5050133;28;20292;-86
2022/07/07 01:01:34;;;;;;;7.93;2.45;;;18.00;99.90;;;;;;5051441;28;20205;-87
2022/07/07 01:04:03;;;;;;;7.38;2.60;;;18.00;99.90;;;;;;5047601;28;20210;-90
2022/07/07 01:06:32;;;;;;;6.78;2.20;;;18.00;99.90;;;;;;5049161;28;20212;-89
2022/07/07 01:09:00;;;;;;;4.13;2.40;;;18.00;99.90;;;;;;5052024;28;20215;-89
2022/07/07 01:11:28;;;;;;;7.88;2.60;;;18.00;99.90;;;;;;5050207;28;20567;-91
2022/07/07 01:13:57;;;;;;;7.35;2.63;;;18.10;99.90;;;;;;5053430;28;20233;-91
2022/07/07 01:16:24;;;;;;;6.28;2.28;;;18.10;99.90;;;;;;5055629;28;20262;-91
2022/07/07 01:18:51;;;;;;;9.23;3.20;;;18.20;99.90;;;;;;5059371;28;20288;-87
2022/07/07 01:21:20;;;;;;;4.95;2.33;;;18.20;99.90;;;;;;5064312;28;20210;-88
2022/07/07 01:23:49;;;;;;;8.23;2.50;;;18.20;99.90;;;;;;5066477;28;20198;-89
2022/07/07 01:26:16;;;;;;;6.35;2.60;;;18.30;99.90;;;;;;5062964;28;20267;-89
2022/07/07 01:28:43;;;;;;;5.65;2.22;;;18.20;99.90;;;;;;5058903;28;20224;-83
2022/07/07 01:31:11;;;;;;;6.40;2.38;;;18.20;99.90;;;;;;5046517;28;20320;-92
2022/07/07 01:33:37;;;;;;;5.60;2.00;;;18.30;99.90;;;;;;5025088;28;20389;-93
2022/07/07 01:36:05;;;;;;;8.70;3.05;;;18.30;99.90;;;;;;5009962;28;20283;-86
2022/07/07 01:38:32;;;;;;;9.88;2.92;;;18.30;99.90;;;;;;5007820;28;20215;-90
2022/07/07 01:41:00;;;;;;;10.52;3.08;;;18.30;99.90;;;;;;5006507;28;20211;-89
2022/07/07 01:43:27;;;;;;;7.78;2.40;;;18.30;99.90;;;;;;5009542;28;20222;-88
2022/07/07 01:45:53;;;;;;;8.70;2.85;;;18.30;99.90;;;;;;5010714;28;20207;-91
2022/07/07 01:48:20;;;;;;;7.65;2.53;;;18.30;99.90;;;;;;5009785;28;20214;-89
2022/07/07 01:50:47;;;;;;;9.43;2.67;;;18.30;99.90;;;;;;5024076;28;20218;-90
2022/07/07 01:53:15;;;;;;;10.10;2.97;;;18.30;99.90;;;;;;5028573;28;20230;-90
2022/07/07 01:55:42;;;;;;;11.70;2.60;;;18.30;99.90;;;;;;5009216;28;20211;-90
2022/07/07 01:58:10;;;;;;;20.73;3.50;;;18.20;99.90;;;;;;5007377;28;20213;-91
2022/07/07 02:00:38;;;;;;;14.25;2.20;;;18.20;99.90;;;;;;5006771;28;20661;-89
2022/07/07 02:03:04;;;;;;;9.07;2.10;;;18.20;99.90;;;;;;5006654;28;20217;-90
2022/07/07 02:05:31;;;;;;;10.02;2.13;;;18.10;99.90;;;;;;5007894;28;20492;-88
2022/07/07 02:07:58;;;;;;;13.07;2.47;;;18.00;99.90;;;;;;5009564;28;20919;-90
2022/07/07 02:13:11;;;;;;;11.43;2.15;;;17.80;99.90;;;;;;5012570;28;20334;-82
2022/07/07 02:15:38;;;;;;;7.80;1.80;;;17.70;99.90;;;;;;5011412;28;20211;-84
2022/07/07 02:18:05;;;;;;;5.82;2.03;;;17.60;99.90;;;;;;5012085;28;20213;-89
2022/07/07 02:20:33;;;;;;;9.57;2.42;;;17.50;99.90;;;;;;5012025;28;20203;-89
2022/07/07 02:23:00;;;;;;;11.80;2.10;;;17.50;99.90;;;;;;5010756;28;20234;-90
2022/07/07 02:25:27;;;;;;;6.28;1.90;;;17.50;99.90;;;;;;5010595;28;20270;-87
2022/07/07 02:27:54;;;;;;;11.77;1.95;;;17.50;99.90;;;;;;5007902;28;20207;-90
2022/07/07 02:30:23;;;;;;;7.55;2.50;;;17.50;99.90;;;;;;5007866;28;20242;-88
2022/07/07 02:32:50;;;;;;;12.90;2.30;;;17.50;99.90;;;;;;5012077;28;20961;-88
2022/07/07 02:35:17;;;;;;;8.35;2.67;;;17.50;99.90;;;;;;5011735;28;20289;-91
2022/07/07 02:37:44;;;;;;;8.65;2.28;;;17.40;99.90;;;;;;5012022;28;20207;-92
2022/07/07 02:40:12;;;;;;;11.40;1.98;;;17.40;99.90;;;;;;5010826;28;20278;-86
2022/07/07 02:42:39;;;;;;;6.28;1.90;;;17.40;99.90;;;;;;5009542;28;20196;-90
2022/07/07 02:45:06;;;;;;;8.98;2.10;;;17.40;99.90;;;;;;5030151;28;20202;-88
2022/07/07 02:47:35;;;;;;;10.00;2.10;;;17.40;99.90;;;;;;5031700;28;20293;-93
2022/07/07 02:50:02;;;;;;;9.23;2.42;;;17.30;99.90;;;;;;5030993;28;20202;-89
2022/07/07 02:52:29;;;;;;;10.23;2.97;;;17.30;99.90;;;;;;5029710;28;20218;-89
2022/07/07 02:54:56;;;;;;;8.70;2.22;;;17.20;99.90;;;;;;5012229;28;20294;-92
2022/07/07 02:57:23;;;;;;;4.05;1.00;;;17.20;99.90;;;;;;5011505;28;20286;-91
2022/07/07 02:59:49;;;;;;;4.97;0.93;;;17.10;99.90;;;;;;5011236;28;20655;-91
2022/07/07 03:02:16;;;;;;;2.50;0.95;;;17.00;99.90;;;;;;5011938;28;20210;-93
2022/07/07 03:04:45;;;;;;;3.15;0.90;;;17.00;99.90;;;;;;5011199;28;20298;-89
2022/07/07 03:07:12;;;;;;;4.93;1.25;;;17.10;99.90;;;;;;5011641;28;20218;-89
2022/07/07 03:09:38;;;;;;;7.45;1.40;;;17.10;99.90;;;;;;5012058;28;20241;-93
2022/07/07 03:12:06;;;;;;;7.40;1.70;;;17.10;99.90;;;;;;5014397;28;20295;-89
2022/07/07 03:14:33;;;;;;;10.10;1.58;;;17.10;99.90;;;;;;5014956;28;20290;-89
2022/07/07 03:17:00;;;;;;;7.05;1.90;;;17.10;99.90;;;;;;5014860;28;20218;-90
2022/07/07 03:19:27;;;;;;;8.20;2.00;;;17.10;99.90;;;;;;5014473;28;20873;-87
2022/07/07 03:21:55;;;;;;;10.57;2.22;;;17.10;99.90;;;;;;5014681;28;20207;-86
2022/07/07 03:24:22;;;;;;;9.15;1.73;;;17.20;99.90;;;;;;5015321;28;20203;-87
2022/07/07 03:26:51;;;;;;;7.65;1.80;;;17.10;99.90;;;;;;5024332;28;20293;-91
2022/07/07 03:29:19;;;;;;;9.70;1.80;;;17.10;99.90;;;;;;5033654;28;20261;-86
2022/07/07 03:31:46;;;;;;;8.38;1.77;;;17.10;99.90;;;;;;5014274;28;20258;-91
2022/07/07 03:34:13;;;;;;;8.85;1.80;;;17.10;99.90;;;;;;5012862;28;20635;-89
2022/07/07 03:36:40;;;;;;;11.20;1.77;;;17.10;99.90;;;;;;5014567;28;20282;-89
2022/07/07 03:39:08;;;;;;;8.70;2.10;;;17.10;99.90;;;;;;5014579;28;20234;-87
2022/07/07 03:41:35;;;;;;;10.65;2.03;;;17.00;99.90;;;;;;5014292;28;20211;-90
2022/07/07 03:44:02;;;;;;;12.55;2.15;;;17.00;99.90;;;;;;5014597;28;20218;-92
2022/07/07 03:46:29;;;;;;;8.50;1.83;;;17.00;99.90;;;;;;5015159;28;20755;-90
2022/07/07 03:48:56;;;;;;;11.30;2.03;;;17.00;99.90;;;;;;5013835;28;20282;-92
2022/07/07 03:51:23;;;;;;;11.75;2.38;;;17.00;99.90;;;;;;5013622;28;20227;-86
2022/07/07 03:53:52;;;;;;;8.38;1.92;;;17.00;99.90;;;;;;5013292;28;20238;-91
2022/07/07 03:56:21;;;;;;;6.07;1.58;;;17.00;99.90;;;;;;5032942;28;20617;-92
2022/07/07 03:58:48;;;;;;;9.63;2.40;;;16.90;99.90;;;;;;5034285;28;20202;-92
2022/07/07 04:01:15;;;;;;;10.35;2.08;;;16.90;99.90;;;;;;5025510;28;20427;-90
2022/07/07 04:03:42;;;;;;;12.35;2.70;;;16.90;99.90;;;;;;5013073;28;20203;-93
2022/07/07 04:06:09;;;;;;;9.63;2.10;;;17.00;99.90;;;;;;5009286;28;20506;-91
2022/07/07 04:08:35;;;;;;;15.27;2.88;;;17.00;99.90;;;;;;5012820;28;20211;-89
2022/07/07 04:11:02;;;;;;;11.50;2.30;;;17.00;99.90;;;;;;5013180;28;20207;-91
2022/07/07 04:13:31;;;;;;;9.05;2.38;;;17.00;99.90;;;;;;5009849;28;20229;-92
2022/07/07 04:15:58;;;;;;;9.30;2.35;;;17.00;99.90;;;;;;5012072;28;20214;-92
2022/07/07 04:18:25;;;;;;;11.00;2.50;;;17.10;99.90;;;;;;5013677;28;20214;-90
2022/07/07 04:20:52;;;;;;;14.68;2.88;;;17.00;99.90;;;;;;5013834;28;20199;-92
2022/07/07 04:23:19;;;;;;;11.85;2.95;;;17.10;99.90;;;;;;5013542;28;20217;-90
2022/07/07 04:25:46;;;;;;;14.10;2.92;;;17.00;99.90;;;;;;5013337;28;20516;-90
2022/07/07 04:28:12;;;;;;;7.97;2.28;;;17.00;99.90;;;;;;5015368;28;20211;-95
2022/07/07 04:30:41;;;;;;;10.75;2.55;;;17.00;99.90;;;;;;5012339;28;20239;-89
2022/07/07 04:33:08;;;;;;;10.15;2.53;;;17.00;99.90;;;;;;5013077;28;20680;-90
2022/07/07 04:35:35;;;;;;;10.02;2.33;;;17.00;99.90;;;;;;5012656;28;20215;-84
2022/07/07 04:38:02;;;;;;;13.13;2.47;;;17.00;99.90;;;;;;5013271;28;20226;-88
2022/07/07 04:40:29;;;;;;;12.77;2.92;;;17.10;99.90;;;;;;5032095;28;20214;-87
2022/07/07 04:42:56;;;;;;;12.13;2.65;;;17.10;99.90;;;;;;5028608;28;20198;-87
2022/07/07 04:45:23;;;;;;;8.65;2.10;;;17.10;99.90;;;;;;5008854;28;20219;-86
2022/07/07 04:47:51;;;;;;;9.52;2.78;;;17.10;99.90;;;;;;5013667;28;20226;-92
2022/07/07 04:50:18;;;;;;;4.93;1.48;;;17.20;99.90;;;;;;5032269;28;20614;-86
2022/07/07 04:52:45;;;;;;;7.07;1.02;;;17.00;99.90;;;;;;5032554;28;20562;-90
2022/07/07 04:55:12;;;;;;;5.95;1.70;;;16.90;99.90;;;;;;5032476;28;20266;-92
2022/07/07 04:57:39;;;;;;;6.43;2.10;;;16.80;99.90;;;;;;5032472;28;20556;-81
2022/07/07 05:00:09;;;;;;;15.40;2.70;;;16.80;99.90;;;;;;5032619;28;20226;-88
2022/07/07 05:02:36;;;;;;;5.90;1.55;;;16.80;99.90;;;;;;5031808;28;20261;-90
2022/07/07 05:05:07;;;;;;;8.88;2.00;;;16.80;99.90;;;;;;5025926;28;20541;-88
2022/07/07 05:07:34;;;;;;;7.57;2.28;;;16.80;99.90;;;;;;5031683;28;20230;-92
2022/07/07 05:10:01;;;;;;;8.23;1.80;;;16.80;99.90;;;;;;5030322;28;20284;-91
2022/07/07 05:12:28;;;;;;;5.57;1.95;;;16.80;99.90;;;;;;5032634;28;20202;-89
2022/07/07 05:14:56;;;;;;;8.10;1.75;;;16.80;99.90;;;;;;5015946;28;20634;-90
2022/07/07 05:17:26;;;;;;;6.55;2.03;;;16.90;99.90;;;;;;5012708;28;20203;-88
2022/07/07 05:19:53;;;;;;;7.28;1.38;;;17.00;99.90;;;;;;5012088;28;20199;-92
2022/07/07 05:22:21;;;;;;;4.05;1.50;;;17.00;99.90;;;;;;5012284;28;20800;-95
2022/07/07 05:24:48;;;;;;;8.63;2.28;;;16.90;99.90;;;;;;5012960;28;20552;-92
2022/07/07 05:27:16;;;;;;;5.30;1.73;;;16.90;99.90;;;;;;5012817;28;20222;-93
2022/07/07 05:29:43;;;;;;;7.35;2.65;;;17.00;99.90;;;;;;5012374;28;20247;-89
2022/07/07 05:32:12;;;;;;;8.18;2.25;;;17.10;99.90;;;;;;5011898;28;20243;-89
2022/07/07 05:34:39;;;;;;;12.18;2.35;;;17.20;99.90;;;;;;5012101;28;20227;-90
2022/07/07 05:37:06;;;;;;;11.18;2.47;;;17.20;99.90;;;;;;5009183;28;20241;-89
2022/07/07 05:39:35;;;;;;;15.93;2.40;;;17.20;99.90;;;;;;5029590;28;20214;-91
2022/07/07 05:42:04;;;;;;;8.65;2.90;;;17.20;99.90;;;;;;5028013;28;20600;-84
2022/07/07 05:44:31;;;;;;;13.23;2.08;;;17.20;99.90;;;;;;5029155;28;20786;-88
2022/07/07 05:46:58;;;;;;;10.15;3.10;;;17.20;99.90;;;;;;5009353;28;20648;-91
2022/07/07 05:49:25;;;;;;;7.68;2.60;;;17.20;99.90;;;;;;5007553;28;20206;-93
2022/07/07 05:51:53;;;;;;;8.63;2.03;;;17.30;99.90;;;;;;5013102;28;20222;-90
2022/07/07 05:54:19;;;;;;;10.75;2.20;;;17.40;99.90;;;;;;5028984;28;20218;-83
2022/07/07 05:56:48;;;;;;;7.82;2.10;;;17.40;99.90;;;;;;5020002;28;20384;-92
2022/07/07 05:59:15;;;;;;;6.82;1.40;;;17.30;99.90;;;;;;5020863;28;20235;-91
2022/07/07 06:01:42;;;;;;;4.35;1.75;;;17.30;99.90;;;;;;5011308;28;20609;-95
2022/07/07 06:04:09;;;;;;;7.35;1.70;;;17.20;99.90;;;;;;5024910;28;20632;-89
2022/07/07 06:06:36;;;;;;;11.50;2.88;;;17.20;99.90;;;;;;5029796;28;20321;-88
2022/07/07 06:09:03;;;;;;;13.80;2.33;;;17.30;99.90;;;;;;5027806;28;20595;-87
2022/07/07 06:11:30;;;;;;;7.68;1.88;;;17.30;99.90;;;;;;5028293;28;20210;-89
2022/07/07 06:13:59;;;;;;;9.73;2.63;;;17.30;99.90;;;;;;5029598;28;20264;-88
2022/07/07 06:16:40;;;;;;;8.43;2.20;;;17.40;99.90;;;;;;5027378;28;20229;-93
2022/07/07 06:19:10;;;;;;;9.23;1.98;;;17.50;99.90;;;;;;5025886;28;20205;-92
2022/07/07 06:21:37;;;;;;;9.20;1.52;;;17.70;99.90;;;;;;5029311;28;20599;-90
2022/07/07 06:24:06;;;;;;;7.05;1.92;;;17.60;99.90;;;;;;5029108;28;20206;-88
2022/07/07 06:26:33;;;;;;;6.70;1.65;;;17.50;99.90;;;;;;5026410;28;20210;-86
2022/07/07 06:29:01;;;;;;;10.40;2.08;;;17.30;99.90;;;;;;5027228;28;20206;-88
2022/07/07 06:31:28;;;;;;;6.80;1.92;;;17.20;99.90;;;;;;5018787;28;20247;-87
2022/07/07 06:33:55;;;;;;;6.35;1.30;;;17.20;99.90;;;;;;5010218;28;20258;-88
2022/07/07 06:36:22;;;;;;;9.40;2.05;;;17.20;99.90;;;;;;5009958;28;20210;-89
2022/07/07 06:38:49;;;;;;;4.22;1.73;;;17.30;99.90;;;;;;5011641;28;20215;-90
2022/07/07 06:41:16;;;;;;;7.65;1.90;;;17.30;99.90;;;;;;5010801;28;20235;-94
2022/07/07 06:43:44;;;;;;;9.95;2.00;;;17.50;99.90;;;;;;5011309;28;20196;-86
2022/07/07 06:46:12;;;;;;;10.70;2.92;;;17.70;99.90;;;;;;5014958;28;20492;-88
2022/07/07 06:48:39;;;;;;;8.18;2.28;;;17.80;99.90;;;;;;5025248;28;20220;-87
2022/07/07 06:51:06;;;;;;;10.43;2.30;;;17.80;99.90;;;;;;5033529;28;20218;-89
2022/07/07 06:53:36;;;;;;;8.18;2.10;;;17.80;99.90;;;;;;5028825;28;20493;-86
2022/07/07 06:56:03;;;;;;;8.80;1.92;;;17.80;99.90;;;;;;5030864;28;20248;-89
2022/07/07 06:58:30;;;;;;;12.88;2.92;;;17.80;99.90;;;;;;5027574;28;20218;-89
2022/07/07 07:00:57;;;;;;;12.10;2.63;;;17.70;99.90;;;;;;5031414;28;20746;-87
2022/07/07 07:03:26;;;;;;;8.38;1.75;;;17.70;99.90;;;;;;5031804;28;20214;-88
2022/07/07 07:05:53;;;;;;;7.38;1.70;;;17.80;99.90;;;;;;5031918;28;21027;-87
2022/07/07 07:08:20;;;;;;;6.50;2.00;;;17.80;99.90;;;;;;5029467;28;20210;-90
2022/07/07 07:10:47;;;;;;;7.50;1.85;;;17.90;99.90;;;;;;5032372;28;20626;-91
2022/07/07 07:13:14;;;;;;;6.20;2.15;;;18.00;99.90;;;;;;5065335;22;20312;-88
2022/07/07 07:15:41;;;;;;;2.90;0.82;;;18.00;99.90;;;;;;5090310;28;20227;-89
2022/07/07 07:18:08;;;;;;;7.13;1.20;;;17.80;99.90;;;;;;5092149;28;20247;-90
2022/07/07 07:20:37;;;;;;;3.55;1.33;;;17.70;99.90;;;;;;5089751;28;20212;-89
2022/07/07 07:23:04;;;;;;;6.18;1.25;;;17.70;99.90;;;;;;5089072;28;20619;-91
2022/07/07 07:25:31;;;;;;;5.05;1.63;;;17.70;99.90;;;;;;5092468;28;20211;-89
2022/07/07 07:27:58;;;;;;;6.05;1.10;;;17.60;99.90;;;;;;5093639;28;20224;-94
2022/07/07 07:30:25;;;;;;;4.85;1.00;;;17.50;99.90;;;;;;5082996;28;20232;-92
2022/07/07 07:32:52;;;;;;;4.78;1.52;;;17.50;99.90;;;;;;5072338;28;20228;-91
2022/07/07 07:35:19;;;;;;;4.85;1.20;;;17.70;99.90;;;;;;5072196;28;20308;-92
2022/07/07 07:37:47;;;;;;;4.78;1.38;;;17.90;99.90;;;;;;5076378;28;20213;-88
2022/07/07 07:40:15;;;;;;;8.45;1.60;;;18.10;99.90;;;;;;5073388;28;20236;-87
2022/07/07 07:42:42;;;;;;;9.70;2.05;;;18.20;99.90;;;;;;5076235;28;20197;-84
2022/07/07 07:45:12;;;;;;;5.97;1.42;;;17.90;99.90;;;;;;5079047;28;20316;-90
2022/07/07 07:47:41;;;;;;;5.30;1.35;;;17.80;99.90;;;;;;5077405;28;20213;-86
2022/07/07 07:50:10;;;;;;;8.82;2.20;;;17.90;99.90;;;;;;5076314;28;20186;-87
2022/07/07 07:52:37;;;;;;;7.78;2.22;;;17.90;99.90;;;;;;5056755;28;20240;-91
2022/07/07 07:55:06;;;;;;;5.65;1.60;;;18.00;99.90;;;;;;5072887;28;20635;-88
2022/07/07 07:57:33;;;;;;;12.05;2.15;;;18.40;99.90;;;;;;5075638;28;20201;-90
2022/07/07 08:00:00;;;;;;;4.47;1.30;;;18.70;99.90;;;;;;5070271;28;20227;-91
2022/07/07 08:02:27;;;;;;;7.93;1.70;;;18.60;99.90;;;;;;5060383;28;20208;-85
2022/07/07 08:04:54;;;;;;;7.10;2.05;;;18.40;99.90;;;;;;5060236;28;20217;-89
2022/07/07 08:07:21;;;;;;;6.75;1.40;;;18.30;99.90;;;;;;5055007;28;20190;-85
2022/07/07 08:09:48;;;;;;;9.70;2.38;;;18.30;99.90;;;;;;5073245;28;20215;-88
2022/07/07 08:12:16;;;;;;;5.93;1.58;;;18.30;99.90;;;;;;5074880;28;20216;-90
2022/07/07 08:14:44;;;;;;;9.15;2.35;;;18.40;99.90;;;;;;5071675;28;20710;-87
2022/07/07 08:17:12;;;;;;;8.20;2.17;;;18.50;99.90;;;;;;5068066;28;20220;-86
2022/07/07 08:19:39;;;;;;;6.50;1.88;;;18.60;99.90;;;;;;5065270;28;20609;-80
2022/07/07 08:22:06;;;;;;;6.32;1.50;;;18.60;99.90;;;;;;5064766;28;20519;-83
2022/07/07 08:24:33;;;;;;;8.27;1.88;;;18.30;99.90;;;;;;5052202;28;20214;-88
2022/07/07 08:27:00;;;;;;;8.00;2.00;;;18.20;99.90;;;;;;5052351;28;20520;-88
2022/07/07 08:29:29;;;;;;;7.57;2.20;;;18.10;99.90;;;;;;5053060;28;20201;-87
2022/07/07 08:31:58;;;;;;;7.45;1.83;;;18.20;99.90;;;;;;5073022;28;20254;-89
2022/07/07 08:34:25;;;;;;;5.93;1.95;;;18.30;99.90;;;;;;5066380;28;20237;-82
2022/07/07 08:36:52;;;;;;;13.40;2.97;;;18.50;99.90;;;;;;5051796;28;20316;-91
2022/07/07 08:39:19;;;;;;;12.73;2.50;;;18.70;99.90;;;;;;5053093;28;20197;-88
2022/07/07 08:41:47;;;;;;;9.85;1.90;;;18.70;99.90;;;;;;5058144;28;20201;-84
2022/07/07 08:44:15;;;;;;;5.72;1.38;;;18.70;99.90;;;;;;5072866;28;20201;-83
2022/07/07 08:46:43;;;;;;;9.77;1.83;;;18.70;99.90;;;;;;5070932;28;20610;-88
2022/07/07 08:49:10;;;;;;;7.07;1.92;;;18.70;99.90;;;;;;5058583;28;20825;-88
2022/07/07 08:51:40;;;;;;;11.88;1.85;;;18.90;99.90;;;;;;5046808;28;20206;-86
2022/07/07 08:54:09;;;;;;;7.90;1.88;;;19.10;99.90;;;;;;5047852;28;20343;-86
2022/07/07 08:56:38;;;;;;;6.80;1.90;;;19.40;99.90;;;;;;5052206;28;20944;-86
2022/07/07 08:59:06;;;;;;;12.90;2.30;;;19.60;99.90;;;;;;5051703;28;20206;-93
2022/07/07 09:01:33;;;;;;;9.80;2.20;;;19.60;99.90;;;;;;5053060;28;20194;-92
2022/07/07 09:04:02;;;;;;;7.68;2.28;;;19.80;99.90;;;;;;5048549;28;20209;-89
2022/07/07 09:06:29;;;;;;;8.88;2.20;;;19.80;99.90;;;;;;5050133;28;20194;-91
2022/07/07 09:08:56;;;;;;;6.20;1.70;;;19.60;99.90;;;;;;5071808;28;20217;-91
2022/07/07 09:11:27;;;;;;;9.00;1.90;;;19.40;99.90;;;;;;5071459;28;20204;-88
2022/07/07 09:13:58;;;;;;;10.20;2.67;;;19.40;99.90;;;;;;5070967;28;20241;-90
2022/07/07 09:16:25;;;;;;;8.27;2.20;;;19.20;99.90;;;;;;5071385;28;20702;-88
2022/07/07 09:18:53;;;;;;;10.57;2.30;;;19.20;99.90;;;;;;5066338;28;20214;-90
2022/07/07 09:21:30;;;;;;;9.82;2.10;;;19.10;99.90;;;;;;5049653;28;20209;-83
2022/07/07 09:23:58;;;;;;;9.52;1.90;;;19.00;99.90;;;;;;5051436;28;20575;-90
2022/07/07 09:26:36;;;;;;;8.95;1.73;;;19.00;99.90;;;;;;5061799;28;20217;-91
2022/07/07 09:29:03;;;;;;;11.82;2.30;;;19.00;99.90;;;;;;5072271;28;20210;-89
2022/07/07 09:31:52;;;;;;;13.55;2.28;;;19.10;99.90;;;;;;5067927;28;20312;-89
2022/07/07 09:34:20;;;;;;;6.88;2.08;;;19.10;99.90;;;;;;5051900;28;20197;-88
2022/07/07 09:39:41;;;;;;;8.60;2.20;;;19.00;99.90;;;;;;5050580;28;20255;-87
2022/07/07 09:42:25;;;;;;;14.07;3.35;;;19.00;99.90;;;;;;5051430;28;20293;-91
2022/07/07 09:44:54;;;;;;;5.90;1.73;;;19.20;99.90;;;;;;5051325;28;20202;-89
2022/07/07 09:47:24;;;;;;;10.40;2.15;;;19.20;99.90;;;;;;5034741;28;20225;-90
2022/07/07 09:50:03;;;;;;;9.32;2.70;;;19.30;99.90;;;;;;5051464;28;20292;-93
2022/07/07 09:52:34;;;;;;;7.43;2.08;;;19.30;99.90;;;;;;5051273;28;20725;-96
2022/07/07 09:55:03;;;;;;;7.43;1.55;;;19.30;99.90;;;;;;5051331;28;20316;-84
2022/07/07 09:57:30;;;;;;;2.53;1.40;;;19.30;99.90;;;;;;5052996;28;20197;-90
2022/07/07 09:59:57;;;;;;;2.60;1.00;;;19.20;99.90;;;;;;5050601;28;20194;-85
2022/07/07 10:02:25;;;;;;;6.07;1.38;;;19.00;99.90;;;;;;5051002;28;20206;-88
2022/07/07 10:04:55;;;;;;;6.32;1.60;;;19.00;99.90;;;;;;5049061;28;20206;-90
2022/07/07 10:07:29;;;;;;;4.45;1.10;;;19.10;99.90;;;;;;5050693;28;20446;-93
2022/07/07 10:10:01;;;;;;;6.22;1.45;;;19.30;99.90;;;;;;5064469;28;20258;-88
2022/07/07 10:12:29;;;;;;;4.00;1.70;;;19.20;99.90;;;;;;5071573;28;20197;-91
2022/07/07 10:15:01;;;;;;;6.00;1.83;;;18.90;99.90;;;;;;5071142;28;20233;-93
2022/07/07 10:17:32;;;;;;;5.78;1.70;;;18.60;99.90;;;;;;5073885;28;20569;-85
2022/07/07 10:20:00;;;;;;;6.05;1.70;;;18.50;99.90;;;;;;5079710;22;20294;-91
2022/07/07 10:22:28;;;;;;;7.70;1.95;;;18.50;99.90;;;;;;5055968;28;20246;-84
2022/07/07 10:24:58;;;;;;;7.50;2.45;;;18.60;99.90;;;;;;5057354;28;20198;-87
2022/07/07 10:27:27;;;;;;;15.90;3.40;;;18.70;99.90;;;;;;5056035;28;20198;-88
2022/07/07 10:29:56;;;;;;;12.02;3.15;;;18.60;99.90;;;;;;5055785;28;20592;-87
2022/07/07 10:32:31;;;;;;;13.95;3.35;;;18.50;99.90;;;;;;5055656;28;20236;-87
2022/07/07 10:35:00;;;;;;;15.43;3.97;;;18.30;99.90;;;;;;5070155;28;20746;-87
2022/07/07 10:37:28;;;;;;;14.05;3.08;;;18.10;99.90;;;;;;5056225;28;20366;-88
2022/07/07 10:39:58;;;;;;;10.00;2.92;;;17.90;99.90;;;;;;5054717;28;20221;-88
2022/07/07 10:42:57;;;;;;;16.50;3.20;;;17.90;99.90;;;;;;5054393;28;20202;-91
2022/07/07 10:45:26;;;;;;;13.98;2.95;;;17.90;99.90;;;;;;5056577;28;20281;-88
2022/07/07 10:47:53;;;;;;;16.15;3.78;;;17.90;99.90;;;;;;5055941;28;20206;-90
2022/07/07 10:50:28;;;;;;;13.25;3.05;;;17.90;99.90;;;;;;5054609;28;20282;-90
2022/07/07 10:52:56;;;;;;;11.07;2.72;;;17.90;99.90;;;;;;5053740;28;20380;-92
2022/07/07 10:55:57;;;;;;;11.40;2.58;;;18.00;99.90;;;;;;5054337;28;20580;-94
2022/07/07 10:58:56;;;;;;;6.10;1.80;;;18.10;99.90;;;;;;5054489;28;20216;-88
2022/07/07 11:01:24;;;;;;;4.55;1.67;;;18.30;99.90;;;;;;5054205;28;20907;-90
2022/07/07 11:03:51;;;;;;;10.73;1.65;;;18.50;99.90;;;;;;5054887;28;20217;-89
2022/07/07 11:06:18;;;;;;;6.15;1.38;;;18.80;99.90;;;;;;5048520;28;20202;-82
2022/07/07 11:08:56;;;;;;;4.50;1.30;;;18.90;99.90;;;;;;5049514;28;20244;-84
2022/07/07 11:11:24;;;;;;;10.05;1.63;;;19.00;99.90;;;;;;5048312;28;20212;-90
2022/07/07 11:14:06;;;;;;;4.07;1.50;;;19.10;99.90;;;;;;5052360;28;20214;-84
2022/07/07 11:16:34;;;;;;;8.65;2.00;;;19.20;99.90;;;;;;5050365;28;20217;-94
2022/07/07 11:19:04;;;;;;;13.63;2.60;;;19.40;99.90;;;;;;5051041;28;20209;-84
2022/07/07 11:21:36;;;;;;;8.20;2.00;;;19.70;99.90;;;;;;5051312;28;20237;-86
2022/07/07 11:24:14;;;;;;;10.55;2.65;;;19.90;99.90;;;;;;5053756;28;20661;-91
2022/07/07 11:26:42;;;;;;;12.70;3.75;;;19.90;99.90;;;;;;5059683;28;20574;-94
2022/07/07 11:29:11;;;;;;;14.77;3.17;;;20.20;99.90;;;;;;5054233;28;20610;-87
2022/07/07 11:31:38;;;;;;;16.08;3.17;;;20.40;99.90;;;;;;5058712;28;20221;-82
2022/07/07 11:34:05;;;;;;;10.57;2.80;;;20.70;99.90;;;;;;5058973;28;20217;-88
2022/07/07 11:36:32;;;;;;;10.43;2.83;;;21.00;99.90;;;;;;5052034;28;20229;-86
2022/07/07 11:39:03;;;;;;;8.43;2.00;;;21.00;99.90;;;;;;5052784;28;20300;-92
2022/07/07 11:41:43;;;;;;;10.57;2.42;;;20.80;99.90;;;;;;5052433;28;20610;-91
2022/07/07 11:44:19;;;;;;;7.20;2.15;;;20.80;99.90;;;;;;5053210;28;20252;-86
2022/07/07 11:46:48;;;;;;;6.30;1.67;;;20.70;99.90;;;;;;5053246;28;20255;-91
2022/07/07 11:49:16;;;;;;;10.30;2.60;;;20.70;99.90;;;;;;5053474;28;20504;-89
2022/07/07 11:51:44;;;;;;;10.38;1.88;;;20.80;99.90;;;;;;5052676;28;20224;-84
2022/07/07 11:54:12;;;;;;;8.18;2.47;;;20.70;99.90;;;;;;5053593;28;20502;-86
2022/07/07 11:56:39;;;;;;;7.90;2.38;;;20.70;99.90;;;;;;5059225;28;20221;-92
2022/07/07 11:59:08;;;;;;;9.40;1.92;;;20.80;99.90;;;;;;5071622;28;20205;-92
2022/07/07 12:01:36;;;;;;;8.63;2.10;;;20.80;99.90;;;;;;5073109;28;20193;-88
2022/07/07 12:04:14;;;;;;;9.60;2.45;;;20.80;99.90;;;;;;5058879;28;20244;-90
2022/07/07 12:06:41;;;;;;;11.70;2.30;;;20.80;99.90;;;;;;5051021;28;20206;-85
2022/07/07 12:09:08;;;;;;;8.88;1.88;;;20.80;99.90;;;;;;5050803;28;20496;-91
2022/07/07 12:11:38;;;;;;;9.35;2.58;;;20.90;99.90;;;;;;5052934;28;20287;-91
2022/07/07 12:14:05;;;;;;;9.02;2.85;;;21.10;99.90;;;;;;5052979;28;20197;-93
2022/07/07 12:16:49;;;;;;;7.72;2.10;;;21.10;99.90;;;;;;5053299;28;20625;-92
2022/07/07 12:19:17;;;;;;;7.32;1.88;;;21.10;99.90;;;;;;5053606;28;20233;-89
2022/07/07 12:21:46;;;;;;;7.78;2.25;;;21.10;99.90;;;;;;5052653;28;20206;-84
2022/07/07 12:24:15;;;;;;;9.15;2.28;;;20.90;99.90;;;;;;5053356;28;20486;-95
2022/07/07 12:26:48;;;;;;;7.28;2.00;;;20.90;99.90;;;;;;5053051;28;20198;-90
2022/07/07 12:29:18;;;;;;;6.60;2.25;;;20.80;99.90;;;;;;5050932;28;20224;-88
2022/07/07 12:31:47;;;;;;;6.35;1.85;;;20.80;99.90;;;;;;5052655;28;20206;-85
2022/07/07 12:34:18;;;;;;;7.50;1.90;;;20.80;99.90;;;;;;5052771;28;20221;-91
2022/07/07 12:36:48;;;;;;;5.80;1.80;;;20.50;99.90;;;;;;5053206;28;20227;-93
2022/07/07 12:39:15;;;;;;;7.63;2.38;;;20.50;99.90;;;;;;5053631;28;20840;-93
2022/07/07 12:41:43;;;;;;;8.70;1.80;;;20.50;99.90;;;;;;5052846;28;20202;-88
2022/07/07 12:44:15;;;;;;;8.73;1.95;;;20.70;99.90;;;;;;5052272;28;20232;-85
2022/07/07 12:46:42;;;;;;;6.20;1.98;;;20.90;99.90;;;;;;5064749;28;20206;-92
2022/07/07 12:49:12;;;;;;;6.85;1.95;;;20.80;99.90;;;;;;5070012;28;20217;-89
2022/07/07 12:51:41;;;;;;;7.40;2.08;;;20.70;99.90;;;;;;5071166;28;20203;-85
2022/07/07 12:54:19;;;;;;;8.30;2.10;;;20.60;99.90;;;;;;5070326;28;20251;-84
2022/07/07 12:56:46;;;;;;;13.13;2.45;;;20.60;99.90;;;;;;5052356;28;20822;-92